createdAt,value
2023-01-01T00:00:13.303Z,14.60
2023-01-01T00:01:13.241Z,15.30
2023-01-01T00:02:13.355Z,15.10
2023-01-01T00:03:13.225Z,15.10
2023-01-01T00:04:13.274Z,15.20
2023-01-01T00:05:13.195Z,14.90
2023-01-01T00:06:13.173Z,15.40
2023-01-01T00:07:13.179Z,15.50
2023-01-01T00:08:13.181Z,16.10
2023-01-01T00:09:13.156Z,15.70
2023-01-01T00:10:13.140Z,15.70
2023-01-01T00:11:13.145Z,15.60
2023-01-01T00:12:13.110Z,16.20
2023-01-01T00:13:13.116Z,15.70
2023-01-01T00:14:13.088Z,16.70
2023-01-01T00:15:13.076Z,16.00
2023-01-01T00:16:13.149Z,16.60
2023-01-01T00:17:13.064Z,16.60
2023-01-01T00:18:13.062Z,16.40
2023-01-01T00:19:13.047Z,17.40
2023-01-01T00:20:13.020Z,16.40
2023-01-01T00:21:13.011Z,16.00
2023-01-01T00:22:44.101Z,16.70
2023-01-01T00:23:13.985Z,16.40
2023-01-01T00:24:12.995Z,16.40
2023-01-01T00:25:12.994Z,16.50
2023-01-01T00:26:12.957Z,16.60
2023-01-01T00:27:12.943Z,16.00
2023-01-01T00:28:12.932Z,16.30
2023-01-01T00:29:12.927Z,16.10
2023-01-01T00:30:12.907Z,16.90
2023-01-01T00:31:12.967Z,16.10
2023-01-01T00:32:15.422Z,16.90
2023-01-01T00:33:13.872Z,16.30
2023-01-01T00:34:12.864Z,16.60
2023-01-01T00:35:12.856Z,16.50
2023-01-01T00:36:12.840Z,16.20
2023-01-01T00:37:12.839Z,16.10
2023-01-01T00:38:12.814Z,16.20
2023-01-01T00:39:12.811Z,16.70
2023-01-01T00:40:12.905Z,15.60
2023-01-01T00:41:12.790Z,15.70
2023-01-01T00:42:12.771Z,16.20
2023-01-01T00:43:12.779Z,16.00
2023-01-01T00:44:12.751Z,16.20
2023-01-01T00:45:18.734Z,16.40
2023-01-01T00:46:13.799Z,16.20
2023-01-01T00:47:12.716Z,15.80
2023-01-01T00:48:12.706Z,16.10
2023-01-01T00:49:12.706Z,16.20
2023-01-01T00:50:12.693Z,16.10
2023-01-01T00:51:12.681Z,15.70
2023-01-01T00:52:12.663Z,15.90
2023-01-01T00:53:12.656Z,15.60
2023-01-01T00:54:12.654Z,16.00
2023-01-01T00:55:12.641Z,15.80
2023-01-01T00:56:12.633Z,15.90
2023-01-01T00:57:12.605Z,15.60
2023-01-01T00:58:12.605Z,15.40
2023-01-01T00:59:12.584Z,15.10
2023-01-01T01:00:12.587Z,15.40
2023-01-01T01:01:12.683Z,15.30
2023-01-01T01:02:12.765Z,15.60
2023-01-01T01:03:12.684Z,15.40
2023-01-01T01:04:12.526Z,15.80
2023-01-01T01:05:12.521Z,15.10
2023-01-01T01:06:12.510Z,15.00
2023-01-01T01:07:12.497Z,14.90
2023-01-01T01:08:12.495Z,14.80
2023-01-01T01:09:12.471Z,15.70
2023-01-01T01:10:12.458Z,15.20
2023-01-01T01:11:12.462Z,15.00
2023-01-01T01:12:18.729Z,15.30
2023-01-01T01:13:13.438Z,15.00
2023-01-01T01:14:12.412Z,15.20
2023-01-01T01:15:12.424Z,15.50
2023-01-01T01:16:12.545Z,14.90
2023-01-01T01:17:12.436Z,15.30
2023-01-01T01:18:12.368Z,14.80
2023-01-01T01:19:12.383Z,14.30
2023-01-01T01:20:12.346Z,15.10
2023-01-01T01:21:12.337Z,14.30
2023-01-01T01:22:12.338Z,14.40
2023-01-01T01:23:12.311Z,14.40
2023-01-01T01:24:12.302Z,14.50
2023-01-01T01:25:12.297Z,14.30
2023-01-01T01:26:12.277Z,13.80
2023-01-01T01:27:12.267Z,14.40
2023-01-01T01:28:12.279Z,14.00
2023-01-01T01:29:12.249Z,14.70
2023-01-01T01:30:12.240Z,14.30
2023-01-01T01:31:12.320Z,14.30
2023-01-01T01:32:12.212Z,14.40
2023-01-01T01:33:12.202Z,14.10
2023-01-01T01:34:16.069Z,14.80
2023-01-01T01:35:12.177Z,13.80
2023-01-01T01:36:12.172Z,14.70
2023-01-01T01:37:12.185Z,14.40
2023-01-01T01:38:12.148Z,13.70
2023-01-01T01:39:12.141Z,13.50
2023-01-01T01:40:12.123Z,14.10
2023-01-01T01:41:26.037Z,14.20
2023-01-01T01:42:13.102Z,13.40
2023-01-01T01:43:12.086Z,14.00
2023-01-01T01:44:12.097Z,14.00
2023-01-01T01:45:12.065Z,14.40
2023-01-01T01:46:12.111Z,14.30
2023-01-01T01:47:12.040Z,14.20
2023-01-01T01:48:12.053Z,13.20
2023-01-01T01:49:12.020Z,13.60
2023-01-01T01:50:12.009Z,14.10
2023-01-01T01:51:11.998Z,14.10
2023-01-01T01:52:11.988Z,14.60
2023-01-01T01:53:11.979Z,13.50
2023-01-01T01:54:11.988Z,14.10
2023-01-01T01:55:11.956Z,13.80
2023-01-01T01:56:11.951Z,13.60
2023-01-01T01:57:11.933Z,13.80
2023-01-01T01:58:11.920Z,14.00
2023-01-01T01:59:11.917Z,13.20
2023-01-01T02:00:12.162Z,12.90
2023-01-01T02:01:12.013Z,14.10
2023-01-01T02:02:12.084Z,14.20
2023-01-01T02:03:11.917Z,13.30
2023-01-01T02:04:11.852Z,13.60
2023-01-01T02:05:11.840Z,13.50
2023-01-01T02:06:11.841Z,13.40
2023-01-01T02:07:11.817Z,13.50
2023-01-01T02:08:11.807Z,13.40
2023-01-01T02:09:11.795Z,13.40
2023-01-01T02:10:11.784Z,12.90
2023-01-01T02:11:11.776Z,12.90
2023-01-01T02:12:11.797Z,13.40
2023-01-01T02:13:11.758Z,12.60
2023-01-01T02:14:11.738Z,12.90
2023-01-01T02:15:11.727Z,13.40
2023-01-01T02:16:11.870Z,13.20
2023-01-01T02:17:11.714Z,13.80
2023-01-01T02:18:11.704Z,13.40
2023-01-01T02:19:11.682Z,12.70
2023-01-01T02:20:11.673Z,12.10
2023-01-01T02:21:11.672Z,12.90
2023-01-01T02:22:11.665Z,12.70
2023-01-01T02:23:11.648Z,12.90
2023-01-01T02:24:11.654Z,13.00
2023-01-01T02:25:11.619Z,13.00
2023-01-01T02:26:11.603Z,12.30
2023-01-01T02:27:11.607Z,13.50
2023-01-01T02:28:11.583Z,12.80
2023-01-01T02:29:11.571Z,12.50
2023-01-01T02:30:11.584Z,12.10
2023-01-01T02:31:11.572Z,12.50
2023-01-01T02:32:11.566Z,12.80
2023-01-01T02:33:11.529Z,12.90
2023-01-01T02:34:11.524Z,12.70
2023-01-01T02:35:11.503Z,12.40
2023-01-01T02:36:11.519Z,12.00
2023-01-01T02:37:11.481Z,12.50
2023-01-01T02:38:11.487Z,12.50
2023-01-01T02:39:11.460Z,12.10
2023-01-01T02:40:11.467Z,12.80
2023-01-01T02:41:11.462Z,12.30
2023-01-01T02:42:11.433Z,12.70
2023-01-01T02:43:11.436Z,12.00
2023-01-01T02:44:11.405Z,12.30
2023-01-01T02:45:11.400Z,12.70
2023-01-01T02:46:11.466Z,12.40
2023-01-01T02:47:11.369Z,12.70
2023-01-01T02:48:11.407Z,12.40
2023-01-01T02:49:11.348Z,12.20
2023-01-01T02:50:11.338Z,11.70
2023-01-01T02:51:11.327Z,12.00
2023-01-01T02:52:11.316Z,12.80
2023-01-01T02:53:11.311Z,12.40
2023-01-01T02:54:11.300Z,12.30
2023-01-01T02:55:11.279Z,12.20
2023-01-01T02:56:11.268Z,12.60
2023-01-01T02:57:11.270Z,12.50
2023-01-01T02:58:11.245Z,12.10
2023-01-01T02:59:11.236Z,12.00
2023-01-01T03:00:11.249Z,12.30
2023-01-01T03:01:11.320Z,11.70
2023-01-01T03:02:11.330Z,12.20
2023-01-01T03:03:11.337Z,11.80
2023-01-01T03:04:11.211Z,11.50
2023-01-01T03:05:11.172Z,11.80
2023-01-01T03:06:11.163Z,12.40
2023-01-01T03:07:11.148Z,11.70
2023-01-01T03:08:11.136Z,11.70
2023-01-01T03:09:11.126Z,12.00
2023-01-01T03:10:11.121Z,11.70
2023-01-01T03:11:11.135Z,12.20
2023-01-01T03:12:11.091Z,12.00
2023-01-01T03:13:11.084Z,12.50
2023-01-01T03:14:11.067Z,11.50
2023-01-01T03:15:11.057Z,12.10
2023-01-01T03:16:11.079Z,11.60
2023-01-01T03:17:11.036Z,11.40
2023-01-01T03:18:11.041Z,11.40
2023-01-01T03:19:11.364Z,11.30
2023-01-01T03:20:11.115Z,11.50
2023-01-01T03:21:40.737Z,10.20
2023-01-01T03:23:10.475Z,11.30
2023-01-01T03:24:10.467Z,12.20
2023-01-01T03:25:10.450Z,12.10
2023-01-01T03:26:10.447Z,12.30
2023-01-01T03:27:10.433Z,11.30
2023-01-01T03:28:10.423Z,11.40
2023-01-01T03:29:10.428Z,11.60
2023-01-01T03:30:10.398Z,11.70
2023-01-01T03:31:10.425Z,11.60
2023-01-01T03:32:10.367Z,11.40
2023-01-01T03:33:10.360Z,11.70
2023-01-01T03:34:10.364Z,11.50
2023-01-01T03:35:10.349Z,11.70
2023-01-01T03:36:10.339Z,11.70
2023-01-01T03:37:10.322Z,11.80
2023-01-01T03:38:10.305Z,11.40
2023-01-01T03:39:10.286Z,11.50
2023-01-01T03:40:10.283Z,11.60
2023-01-01T03:41:10.293Z,11.50
2023-01-01T03:42:10.263Z,11.60
2023-01-01T03:43:10.272Z,11.80
2023-01-01T03:44:10.239Z,11.40
2023-01-01T03:45:10.222Z,10.80
2023-01-01T03:46:10.301Z,11.40
2023-01-01T03:47:10.206Z,11.10
2023-01-01T03:48:10.194Z,11.20
2023-01-01T03:49:10.184Z,11.80
2023-01-01T03:50:10.192Z,10.90
2023-01-01T03:51:10.153Z,11.50
2023-01-01T03:52:10.167Z,10.90
2023-01-01T03:53:10.161Z,10.70
2023-01-01T03:54:10.128Z,11.00
2023-01-01T03:55:10.112Z,11.40
2023-01-01T03:56:10.106Z,10.80
2023-01-01T03:57:10.088Z,11.20
2023-01-01T03:58:10.081Z,11.30
2023-01-01T03:59:10.086Z,10.70
2023-01-01T04:00:10.058Z,10.70
2023-01-01T04:01:10.065Z,10.60
2023-01-01T04:02:10.115Z,10.90
2023-01-01T04:03:10.045Z,11.10
2023-01-01T04:04:10.009Z,10.70
2023-01-01T04:05:10.013Z,11.00
2023-01-01T04:06:09.987Z,11.30
2023-01-01T04:07:15.258Z,10.60
2023-01-01T04:08:10.987Z,10.70
2023-01-01T04:09:09.952Z,10.70
2023-01-01T04:10:09.945Z,10.40
2023-01-01T04:11:09.936Z,10.40
2023-01-01T04:12:09.919Z,10.80
2023-01-01T04:13:09.908Z,11.00
2023-01-01T04:14:09.908Z,10.60
2023-01-01T04:15:09.886Z,10.40
2023-01-01T04:16:09.881Z,10.50
2023-01-01T04:17:09.880Z,10.60
2023-01-01T04:18:09.856Z,10.60
2023-01-01T04:19:09.843Z,10.80
2023-01-01T04:20:09.831Z,10.60
2023-01-01T04:21:09.822Z,11.10
2023-01-01T04:22:09.807Z,10.70
2023-01-01T04:23:09.809Z,10.30
2023-01-01T04:24:09.814Z,10.50
2023-01-01T04:25:09.773Z,10.60
2023-01-01T04:26:09.761Z,10.60
2023-01-01T04:27:09.752Z,10.40
2023-01-01T04:28:09.740Z,10.50
2023-01-01T04:29:09.760Z,10.10
2023-01-01T04:30:09.731Z,10.10
2023-01-01T04:31:09.708Z,10.30
2023-01-01T04:32:09.699Z,10.70
2023-01-01T04:33:09.684Z,10.10
2023-01-01T04:34:09.672Z,10.20
2023-01-01T04:35:09.674Z,10.10
2023-01-01T04:36:09.656Z,10.50
2023-01-01T04:37:13.120Z,10.80
2023-01-01T04:38:09.628Z,10.70
2023-01-01T04:39:09.621Z,10.50
2023-01-01T04:40:09.739Z,9.70
2023-01-01T04:41:09.611Z,9.80
2023-01-01T04:42:09.581Z,10.40
2023-01-01T04:43:09.574Z,9.90
2023-01-01T04:44:09.562Z,10.30
2023-01-01T04:45:09.551Z,10.20
2023-01-01T04:46:09.610Z,10.30
2023-01-01T04:47:09.557Z,10.30
2023-01-01T04:48:09.522Z,10.60
2023-01-01T04:49:09.522Z,10.20
2023-01-01T04:50:09.535Z,10.30
2023-01-01T04:51:09.485Z,9.90
2023-01-01T04:52:09.470Z,9.90
2023-01-01T04:53:09.465Z,10.60
2023-01-01T04:54:09.449Z,9.60
2023-01-01T04:55:09.453Z,10.20
2023-01-01T04:56:09.471Z,9.90
2023-01-01T04:57:09.424Z,10.20
2023-01-01T04:58:09.401Z,9.60
2023-01-01T04:59:09.399Z,9.90
2023-01-01T05:00:09.392Z,9.60
2023-01-01T05:01:09.457Z,9.50
2023-01-01T05:02:09.505Z,10.20
2023-01-01T05:03:09.392Z,9.80
2023-01-01T05:04:09.346Z,9.40
2023-01-01T05:05:09.362Z,9.70
2023-01-01T05:06:09.321Z,9.60
2023-01-01T05:07:09.305Z,9.60
2023-01-01T05:08:09.294Z,9.40
2023-01-01T05:09:09.282Z,9.90
2023-01-01T05:10:09.270Z,9.80
2023-01-01T05:11:09.282Z,9.30
2023-01-01T05:12:09.273Z,9.30
2023-01-01T05:13:09.234Z,9.40
2023-01-01T05:14:09.222Z,9.60
2023-01-01T05:15:09.223Z,9.10
2023-01-01T05:16:09.218Z,9.30
2023-01-01T05:17:09.206Z,9.60
2023-01-01T05:18:09.180Z,10.10
2023-01-01T05:19:09.194Z,9.10
2023-01-01T05:20:09.165Z,9.60
2023-01-01T05:21:09.162Z,9.30
2023-01-01T05:22:11.207Z,9.20
2023-01-01T05:23:09.130Z,9.60
2023-01-01T05:24:09.115Z,9.30
2023-01-01T05:25:09.101Z,9.20
2023-01-01T05:26:09.092Z,9.30
2023-01-01T05:27:09.076Z,8.80
2023-01-01T05:28:09.085Z,9.20
2023-01-01T05:29:16.109Z,9.40
2023-01-01T05:30:10.044Z,9.90
2023-01-01T05:31:09.039Z,9.40
2023-01-01T05:32:38.769Z,8.60
2023-01-01T05:33:38.759Z,9.00
2023-01-01T05:34:38.765Z,9.10
2023-01-01T05:35:38.749Z,9.20
2023-01-01T05:36:39.172Z,9.30
2023-01-01T05:37:38.714Z,9.80
2023-01-01T05:38:38.714Z,9.10
2023-01-01T05:39:38.689Z,9.10
2023-01-01T05:40:38.713Z,9.70
2023-01-01T05:41:38.668Z,9.40
2023-01-01T05:42:38.667Z,9.20
2023-01-01T05:43:38.672Z,9.40
2023-01-01T05:44:38.634Z,8.90
2023-01-01T05:45:38.687Z,9.30
2023-01-01T05:46:38.627Z,9.10
2023-01-01T05:47:38.602Z,9.00
2023-01-01T05:48:38.597Z,9.00
2023-01-01T05:49:38.579Z,8.60
2023-01-01T05:50:38.577Z,9.30
2023-01-01T05:52:08.311Z,7.80
2023-01-01T05:53:08.297Z,8.30
2023-01-01T05:54:38.036Z,10.40
2023-01-01T05:55:38.027Z,9.10
2023-01-01T05:56:38.013Z,8.90
2023-01-01T05:57:38.009Z,8.60
2023-01-01T05:58:37.988Z,8.90
2023-01-01T05:59:37.994Z,8.70
2023-01-01T06:00:37.968Z,8.90
2023-01-01T06:01:45.147Z,8.80
2023-01-01T06:02:39.065Z,9.00
2023-01-01T06:03:37.936Z,8.80
2023-01-01T06:04:37.944Z,8.40
2023-01-01T06:05:37.912Z,8.50
2023-01-01T06:06:37.898Z,8.70
2023-01-01T06:07:39.333Z,9.30
2023-01-01T06:08:37.899Z,8.90
2023-01-01T06:09:37.869Z,8.70
2023-01-01T06:10:37.856Z,8.70
2023-01-01T06:11:37.843Z,9.10
2023-01-01T06:12:37.834Z,8.50
2023-01-01T06:13:37.819Z,8.50
2023-01-01T06:14:37.840Z,8.90
2023-01-01T06:15:37.819Z,8.30
2023-01-01T06:16:37.837Z,8.50
2023-01-01T06:17:37.774Z,8.40
2023-01-01T06:18:37.769Z,8.30
2023-01-01T06:19:37.754Z,8.40
2023-01-01T06:20:37.749Z,8.50
2023-01-01T06:21:37.735Z,8.80
2023-01-01T06:22:37.719Z,8.40
2023-01-01T06:23:37.707Z,8.80
2023-01-01T06:24:39.325Z,8.40
2023-01-01T06:25:37.685Z,8.90
2023-01-01T06:26:37.690Z,8.20
2023-01-01T06:27:37.663Z,8.10
2023-01-01T06:28:37.654Z,8.30
2023-01-01T06:29:37.641Z,8.30
2023-01-01T06:30:37.665Z,8.30
2023-01-01T06:31:40.831Z,8.10
2023-01-01T06:32:37.614Z,8.20
2023-01-01T06:33:37.597Z,8.20
2023-01-01T06:34:37.583Z,8.30
2023-01-01T06:35:37.576Z,8.40
2023-01-01T06:36:37.581Z,8.10
2023-01-01T06:37:37.575Z,8.20
2023-01-01T06:38:37.543Z,8.60
2023-01-01T06:39:37.528Z,8.20
2023-01-01T06:40:37.521Z,8.40
2023-01-01T06:41:37.513Z,7.70
2023-01-01T06:42:37.495Z,8.20
2023-01-01T06:43:37.485Z,8.00
2023-01-01T06:44:37.494Z,8.20
2023-01-01T06:45:37.463Z,8.30
2023-01-01T06:46:37.505Z,8.00
2023-01-01T06:47:37.455Z,8.10
2023-01-01T06:48:37.427Z,8.20
2023-01-01T06:49:37.417Z,7.90
2023-01-01T06:50:37.435Z,8.10
2023-01-01T06:51:37.394Z,8.60
2023-01-01T06:52:37.386Z,7.40
2023-01-01T06:53:37.374Z,8.20
2023-01-01T06:54:37.360Z,8.00
2023-01-01T06:55:37.353Z,7.80
2023-01-01T06:56:37.362Z,7.50
2023-01-01T06:57:37.327Z,7.40
2023-01-01T06:58:37.318Z,7.80
2023-01-01T06:59:37.306Z,8.00
2023-01-01T07:00:37.293Z,8.00
2023-01-01T07:01:37.357Z,8.20
2023-01-01T07:02:37.450Z,7.80
2023-01-01T07:03:37.404Z,8.00
2023-01-01T07:04:37.250Z,8.20
2023-01-01T07:05:37.238Z,7.70
2023-01-01T07:06:37.235Z,7.60
2023-01-01T07:07:37.244Z,8.00
2023-01-01T07:08:37.228Z,7.90
2023-01-01T07:09:37.192Z,7.80
2023-01-01T07:10:37.181Z,7.80
2023-01-01T07:11:37.171Z,7.70
2023-01-01T07:12:37.163Z,7.90
2023-01-01T07:13:37.152Z,7.80
2023-01-01T07:14:37.142Z,7.30
2023-01-01T07:15:37.155Z,7.60
2023-01-01T07:16:37.190Z,7.40
2023-01-01T07:17:37.101Z,7.70
2023-01-01T07:18:37.090Z,7.90
2023-01-01T07:19:37.132Z,7.30
2023-01-01T07:20:37.094Z,8.50
2023-01-01T07:21:37.065Z,7.50
2023-01-01T07:22:37.051Z,7.40
2023-01-01T07:23:37.037Z,7.60
2023-01-01T07:24:37.025Z,7.80
2023-01-01T07:25:37.017Z,7.40
2023-01-01T07:26:37.035Z,7.40
2023-01-01T07:27:36.997Z,7.20
2023-01-01T07:28:36.978Z,7.10
2023-01-01T07:29:36.966Z,7.80
2023-01-01T07:30:36.957Z,7.40
2023-01-01T07:31:37.011Z,7.10
2023-01-01T07:32:36.942Z,7.60
2023-01-01T07:33:36.929Z,7.50
2023-01-01T07:34:36.910Z,7.10
2023-01-01T07:35:36.922Z,7.60
2023-01-01T07:36:36.894Z,7.50
2023-01-01T07:37:36.876Z,7.30
2023-01-01T07:38:36.882Z,7.90
2023-01-01T07:39:36.854Z,7.90
2023-01-01T07:40:36.846Z,7.30
2023-01-01T07:41:36.844Z,7.50
2023-01-01T07:42:36.821Z,7.30
2023-01-01T07:43:36.811Z,7.50
2023-01-01T07:44:36.814Z,7.50
2023-01-01T07:45:36.791Z,7.20
2023-01-01T07:46:36.892Z,7.60
2023-01-01T07:47:36.765Z,7.50
2023-01-01T07:48:40.059Z,7.20
2023-01-01T07:49:36.743Z,7.70
2023-01-01T07:50:36.740Z,7.70
2023-01-01T07:51:36.743Z,7.40
2023-01-01T07:52:36.708Z,7.20
2023-01-01T07:53:36.699Z,7.20
2023-01-01T07:54:36.687Z,7.80
2023-01-01T07:55:36.682Z,7.30
2023-01-01T07:56:36.838Z,7.00
2023-01-01T07:57:36.653Z,7.20
2023-01-01T07:58:36.643Z,7.40
2023-01-01T07:59:36.636Z,7.20
2023-01-01T08:00:36.620Z,7.10
2023-01-01T08:01:36.781Z,7.30
2023-01-01T08:02:36.756Z,7.10
2023-01-01T08:03:36.610Z,6.80
2023-01-01T08:04:36.579Z,7.20
2023-01-01T08:05:36.563Z,6.90
2023-01-01T08:06:36.559Z,7.00
2023-01-01T08:07:36.559Z,7.00
2023-01-01T08:08:36.544Z,7.20
2023-01-01T08:09:36.519Z,7.40
2023-01-01T08:10:36.510Z,6.90
2023-01-01T08:11:36.496Z,6.60
2023-01-01T08:12:36.487Z,7.30
2023-01-01T08:13:36.488Z,6.90
2023-01-01T08:14:36.469Z,7.50
2023-01-01T08:15:36.453Z,7.30
2023-01-01T08:16:36.514Z,7.20
2023-01-01T08:17:39.713Z,7.30
2023-01-01T08:18:37.432Z,7.30
2023-01-01T08:19:36.407Z,6.60
2023-01-01T08:20:36.410Z,7.00
2023-01-01T08:21:36.383Z,6.90
2023-01-01T08:22:36.373Z,6.80
2023-01-01T08:23:36.382Z,6.50
2023-01-01T08:24:36.356Z,7.40
2023-01-01T08:25:36.343Z,6.50
2023-01-01T08:26:36.334Z,6.90
2023-01-01T08:27:36.353Z,6.80
2023-01-01T08:28:36.313Z,7.20
2023-01-01T08:29:36.299Z,7.20
2023-01-01T08:30:36.287Z,6.60
2023-01-01T08:31:36.387Z,6.90
2023-01-01T08:32:36.290Z,6.70
2023-01-01T08:33:36.250Z,7.00
2023-01-01T08:34:36.241Z,6.80
2023-01-01T08:35:36.231Z,6.50
2023-01-01T08:36:36.218Z,7.10
2023-01-01T08:37:36.210Z,6.80
2023-01-01T08:38:36.224Z,6.50
2023-01-01T08:39:36.202Z,7.00
2023-01-01T08:40:36.171Z,7.10
2023-01-01T08:41:36.159Z,6.80
2023-01-01T08:42:36.146Z,6.80
2023-01-01T08:43:36.138Z,6.70
2023-01-01T08:44:36.141Z,6.70
2023-01-01T08:45:36.126Z,6.60
2023-01-01T08:46:36.222Z,6.60
2023-01-01T08:47:36.096Z,6.90
2023-01-01T08:48:36.080Z,6.70
2023-01-01T08:49:36.069Z,6.70
2023-01-01T08:50:36.086Z,6.60
2023-01-01T08:51:36.049Z,6.40
2023-01-01T08:52:36.035Z,6.60
2023-01-01T08:53:36.041Z,6.60
2023-01-01T08:54:36.027Z,6.50
2023-01-01T08:55:36.024Z,6.70
2023-01-01T08:56:36.004Z,6.40
2023-01-01T08:57:35.981Z,6.80
2023-01-01T08:58:35.969Z,6.30
2023-01-01T08:59:35.962Z,6.40
2023-01-01T09:00:35.945Z,6.40
2023-01-01T09:01:36.085Z,6.20
2023-01-01T09:02:36.201Z,6.40
2023-01-01T09:03:35.979Z,6.40
2023-01-01T09:04:35.921Z,6.90
2023-01-01T09:05:35.889Z,6.70
2023-01-01T09:06:35.880Z,6.40
2023-01-01T09:07:35.868Z,6.40
2023-01-01T09:08:35.893Z,6.30
2023-01-01T09:09:35.846Z,6.50
2023-01-01T09:10:35.835Z,6.70
2023-01-01T09:11:35.851Z,6.40
2023-01-01T09:12:35.833Z,6.30
2023-01-01T09:13:35.806Z,6.20
2023-01-01T09:14:35.824Z,6.70
2023-01-01T09:15:35.800Z,6.70
2023-01-01T09:16:41.936Z,6.20
2023-01-01T09:17:36.756Z,6.40
2023-01-01T09:18:35.744Z,6.80
2023-01-01T09:19:35.739Z,6.70
2023-01-01T09:20:35.728Z,5.80
2023-01-01T09:21:35.710Z,6.30
2023-01-01T09:22:35.699Z,6.50
2023-01-01T09:23:35.696Z,6.20
2023-01-01T09:24:35.678Z,6.50
2023-01-01T09:25:35.678Z,6.10
2023-01-01T09:26:35.670Z,6.50
2023-01-01T09:27:35.660Z,6.40
2023-01-01T09:28:35.629Z,6.10
2023-01-01T09:29:35.620Z,6.40
2023-01-01T09:30:35.641Z,6.30
2023-01-01T09:31:35.636Z,6.40
2023-01-01T09:32:35.594Z,6.10
2023-01-01T09:33:35.589Z,6.10
2023-01-01T09:34:35.567Z,5.80
2023-01-01T09:35:35.570Z,6.10
2023-01-01T09:36:35.585Z,6.10
2023-01-01T09:37:35.587Z,6.50
2023-01-01T09:38:35.558Z,6.10
2023-01-01T09:39:35.515Z,6.20
2023-01-01T09:40:35.498Z,6.50
2023-01-01T09:41:35.489Z,6.50
2023-01-01T09:42:35.484Z,6.20
2023-01-01T09:43:35.538Z,6.10
2023-01-01T09:44:35.472Z,6.10
2023-01-01T09:45:35.532Z,6.00
2023-01-01T09:46:35.454Z,5.90
2023-01-01T09:47:35.420Z,6.00
2023-01-01T09:48:35.408Z,5.80
2023-01-01T09:49:35.397Z,6.10
2023-01-01T09:50:35.414Z,6.60
2023-01-01T09:51:36.379Z,6.10
2023-01-01T09:52:35.365Z,5.70
2023-01-01T09:53:35.360Z,6.20
2023-01-01T09:54:35.342Z,5.70
2023-01-01T09:55:35.330Z,6.40
2023-01-01T09:56:35.333Z,6.00
2023-01-01T09:57:35.310Z,5.90
2023-01-01T09:58:35.298Z,6.10
2023-01-01T09:59:35.308Z,6.40
2023-01-01T10:00:35.273Z,6.00
2023-01-01T10:01:35.347Z,5.80
2023-01-01T10:02:35.259Z,5.90
2023-01-01T10:03:35.254Z,6.00
2023-01-01T10:04:35.229Z,5.90
2023-01-01T10:05:35.216Z,6.00
2023-01-01T10:06:35.208Z,5.80
2023-01-01T10:07:35.195Z,5.90
2023-01-01T10:08:35.222Z,5.90
2023-01-01T10:09:35.179Z,5.70
2023-01-01T10:10:35.172Z,5.70
2023-01-01T10:11:35.151Z,6.00
2023-01-01T10:12:35.145Z,5.80
2023-01-01T10:13:35.127Z,6.10
2023-01-01T10:14:35.126Z,5.90
2023-01-01T10:15:35.126Z,6.00
2023-01-01T10:16:35.170Z,5.70
2023-01-01T10:17:35.082Z,6.10
2023-01-01T10:18:35.071Z,6.00
2023-01-01T10:19:35.070Z,5.80
2023-01-01T10:20:35.073Z,5.90
2023-01-01T10:21:35.038Z,5.80
2023-01-01T10:22:35.031Z,5.80
2023-01-01T10:23:35.015Z,6.40
2023-01-01T10:24:35.016Z,6.00
2023-01-01T10:25:35.002Z,5.70
2023-01-01T10:26:35.013Z,5.90
2023-01-01T10:27:34.978Z,5.90
2023-01-01T10:28:34.961Z,6.10
2023-01-01T10:29:34.952Z,6.30
2023-01-01T10:30:34.938Z,5.90
2023-01-01T10:31:35.056Z,5.90
2023-01-01T10:32:34.953Z,5.90
2023-01-01T10:33:34.903Z,5.70
2023-01-01T10:34:34.892Z,5.80
2023-01-01T10:35:34.905Z,6.10
2023-01-01T10:36:34.872Z,5.80
2023-01-01T10:37:34.862Z,6.10
2023-01-01T10:38:34.859Z,5.70
2023-01-01T10:39:34.840Z,5.40
2023-01-01T10:40:34.839Z,5.60
2023-01-01T10:41:34.814Z,6.10
2023-01-01T10:42:34.804Z,5.80
2023-01-01T10:43:34.800Z,5.40
2023-01-01T10:44:34.801Z,5.90
2023-01-01T10:45:34.816Z,5.60
2023-01-01T10:46:34.793Z,5.20
2023-01-01T10:47:34.767Z,5.60
2023-01-01T10:48:34.736Z,6.00
2023-01-01T10:49:34.724Z,5.90
2023-01-01T10:50:34.724Z,5.90
2023-01-01T10:51:34.701Z,5.50
2023-01-01T10:52:34.706Z,5.40
2023-01-01T10:53:34.684Z,5.70
2023-01-01T10:54:34.665Z,5.50
2023-01-01T10:55:34.661Z,5.80
2023-01-01T10:56:34.669Z,5.70
2023-01-01T10:57:34.634Z,5.50
2023-01-01T10:58:34.625Z,5.70
2023-01-01T10:59:34.650Z,5.40
2023-01-01T11:00:34.605Z,5.50
2023-01-01T11:01:34.751Z,5.50
2023-01-01T11:02:34.785Z,5.20
2023-01-01T11:03:34.589Z,5.50
2023-01-01T11:04:34.557Z,5.50
2023-01-01T11:05:34.549Z,5.40
2023-01-01T11:06:34.535Z,5.60
2023-01-01T11:07:34.523Z,5.10
2023-01-01T11:08:34.533Z,5.50
2023-01-01T11:09:34.501Z,5.60
2023-01-01T11:10:34.489Z,5.70
2023-01-01T11:11:34.478Z,5.70
2023-01-01T11:13:03.524Z,5.60
2023-01-01T11:13:35.477Z,5.60
2023-01-01T11:14:34.445Z,5.20
2023-01-01T11:15:34.432Z,5.50
2023-01-01T11:16:34.485Z,5.70
2023-01-01T11:17:34.420Z,5.30
2023-01-01T11:18:34.415Z,5.50
2023-01-01T11:19:34.433Z,5.10
2023-01-01T11:20:34.378Z,5.30
2023-01-01T11:21:34.379Z,5.40
2023-01-01T11:22:34.354Z,5.50
2023-01-01T11:23:34.348Z,5.50
2023-01-01T11:24:34.358Z,5.50
2023-01-01T11:25:34.327Z,5.20
2023-01-01T11:26:34.311Z,5.10
2023-01-01T11:27:34.299Z,5.20
2023-01-01T11:28:34.337Z,5.00
2023-01-01T11:29:34.275Z,5.50
2023-01-01T11:30:34.298Z,5.20
2023-01-01T11:31:34.284Z,5.00
2023-01-01T11:32:34.241Z,5.00
2023-01-01T11:33:34.232Z,5.50
2023-01-01T11:34:34.220Z,5.20
2023-01-01T11:35:34.238Z,5.50
2023-01-01T11:36:34.199Z,5.10
2023-01-01T11:37:34.275Z,5.40
2023-01-01T11:38:34.177Z,5.10
2023-01-01T11:39:34.165Z,5.60
2023-01-01T11:40:34.161Z,4.90
2023-01-01T11:41:34.143Z,5.10
2023-01-01T11:42:34.132Z,5.20
2023-01-01T11:43:34.124Z,5.10
2023-01-01T11:44:34.106Z,5.00
2023-01-01T11:45:37.594Z,5.10
2023-01-01T11:46:34.087Z,5.20
2023-01-01T11:47:34.072Z,5.20
2023-01-01T11:48:34.067Z,5.00
2023-01-01T11:49:34.064Z,5.30
2023-01-01T11:50:34.055Z,4.80
2023-01-01T11:51:34.060Z,5.10
2023-01-01T11:52:34.024Z,5.10
2023-01-01T11:53:34.008Z,5.00
2023-01-01T11:54:34.001Z,5.20
2023-01-01T11:55:34.006Z,5.00
2023-01-01T11:56:33.980Z,5.30
2023-01-01T11:57:33.967Z,5.30
2023-01-01T11:58:33.951Z,4.80
2023-01-01T11:59:33.942Z,5.10
2023-01-01T12:00:33.929Z,5.40
2023-01-01T12:01:34.023Z,5.00
2023-01-01T12:02:33.977Z,5.20
2023-01-01T12:03:34.284Z,5.00
2023-01-01T12:04:33.890Z,4.90
2023-01-01T12:05:33.878Z,5.10
2023-01-01T12:06:33.873Z,5.30
2023-01-01T12:07:33.876Z,4.70
2023-01-01T12:08:33.838Z,4.90
2023-01-01T12:09:33.827Z,4.70
2023-01-01T12:10:33.816Z,4.80
2023-01-01T12:11:33.804Z,4.80
2023-01-01T12:12:33.804Z,5.50
2023-01-01T12:13:33.815Z,4.90
2023-01-01T12:14:33.767Z,4.60
2023-01-01T12:15:33.814Z,4.60
2023-01-01T12:16:33.749Z,4.80
2023-01-01T12:17:33.761Z,4.70
2023-01-01T12:18:33.727Z,5.00
2023-01-01T12:19:34.227Z,4.70
2023-01-01T12:20:33.712Z,4.90
2023-01-01T12:21:33.691Z,5.00
2023-01-01T12:22:33.679Z,5.00
2023-01-01T12:23:33.783Z,4.80
2023-01-01T12:24:33.662Z,4.70
2023-01-01T12:25:33.666Z,4.80
2023-01-01T12:26:33.678Z,4.60
2023-01-01T12:27:33.629Z,4.80
2023-01-01T12:28:33.618Z,4.80
2023-01-01T12:29:33.601Z,4.70
2023-01-01T12:30:33.592Z,4.60
2023-01-01T12:31:33.613Z,4.60
2023-01-01T12:32:33.575Z,5.20
2023-01-01T12:33:33.556Z,4.80
2023-01-01T12:34:33.551Z,4.70
2023-01-01T12:35:33.534Z,5.00
2023-01-01T12:36:33.531Z,4.80
2023-01-01T12:37:33.520Z,4.50
2023-01-01T12:38:33.507Z,4.40
2023-01-01T12:39:33.506Z,4.70
2023-01-01T12:40:33.481Z,4.50
2023-01-01T12:41:33.479Z,5.00
2023-01-01T12:42:33.456Z,4.60
2023-01-01T12:43:33.455Z,4.90
2023-01-01T12:44:33.435Z,4.60
2023-01-01T12:45:33.427Z,4.10
2023-01-01T12:46:33.465Z,4.90
2023-01-01T12:47:33.396Z,4.50
2023-01-01T12:48:33.387Z,4.70
2023-01-01T12:49:33.424Z,4.30
2023-01-01T12:50:33.367Z,4.50
2023-01-01T12:51:33.355Z,4.70
2023-01-01T12:52:33.357Z,4.90
2023-01-01T12:53:33.332Z,4.60
2023-01-01T12:54:33.322Z,4.40
2023-01-01T12:55:33.345Z,4.20
2023-01-01T12:56:33.302Z,4.50
2023-01-01T12:57:33.288Z,4.40
2023-01-01T12:58:33.289Z,4.50
2023-01-01T12:59:33.266Z,4.10
2023-01-01T13:00:33.265Z,4.30
2023-01-01T13:01:34.368Z,4.40
2023-01-01T13:02:33.524Z,4.50
2023-01-01T13:03:33.275Z,4.60
2023-01-01T13:04:33.208Z,4.50
2023-01-01T13:05:33.197Z,4.50
2023-01-01T13:06:33.188Z,4.00
2023-01-01T13:07:33.195Z,4.30
2023-01-01T13:08:33.170Z,4.30
2023-01-01T13:09:33.153Z,4.50
2023-01-01T13:10:33.144Z,4.40